Route Details

Aircraft Information
Group: North America Light
Types: B738, B752, B762
Route Data
Distance: 1323nm
Duration: 3h 45m
Origin METAR: MMMX 072247Z 09002KT 8SM SKC 24/M08 A3017 NOSIG RMK HZY ISOL CU
Dest. METAR: KONT 072353Z 29005KT 10SM FEW250 20/M03 A3020 RMK AO2 SLP220 T02001033 10200 20167 56012
Freight Data
(for Feb 8, 2023)
Load Factor:
70%
Manifested Cargo: 64,905lbs
Financial History
Total Freight: 148,606lbs
Average Load: 0lbs/flt
Fuel Used: 85,261lbs
Avg. Fuel Used: 0lbs/flt
Fuel Expense: $46,215
Avg. Fuel Expense: $0
Avg. Fuel Cost: $0/lbs
Total Gross Income: $365,571
Pilot Pay: $926
Total Expenses: $76,536
Total Revenue: $237,903
Average Revenue: $0

Capitol Logistics 702




MMMX
Benito Juárez International Airport
Mexico City, MX
KONT
Ontario International Airport
Ontario, US

Activity Log

Date Flight Route Aircraft Duration
01/31/2023 CPX702 ATUR2A ATURO UT134 ZCL UT10 PPE J93 JLI SETER5 B762 3h 39m
11/16/2022 CPX702 ATUR2A ATURO UT134 ZCL UT10 PPE J93 JLI SETER5 B738 3h 56m
08/07/2022 CPX702 ATUR2B ATURO UT134 ZCL UT10 PPE J93 JLI SETER5 B738 3h 35m
07/08/2022 CPX702 ATUR2B ATURO UT134 ZCL UT10 PPE J93 JLI SETER5 B752 3h 29m